sensor_id;sensor_type;location;lat;lon;timestamp;pressure;altitude;pressure_sealevel;temperature;humidity
50250;BME280;36133;42.522;27.456;2022-07-29T00:02:21;101213.72;;;25.44;59.36
50250;BME280;36133;42.522;27.456;2022-07-29T00:04:46;101137.03;;;24.94;59.70
50250;BME280;36133;42.522;27.456;2022-07-29T00:07:12;101167.81;;;25.33;59.25
50250;BME280;36133;42.522;27.456;2022-07-29T00:09:37;101241.97;;;25.87;59.07
50250;BME280;36133;42.522;27.456;2022-07-29T00:12:03;101275.44;;;26.06;58.77
50250;BME280;36133;42.522;27.456;2022-07-29T00:14:29;101073.13;;;24.39;59.70
50250;BME280;36133;42.522;27.456;2022-07-29T00:16:55;101122.63;;;24.71;59.71
50250;BME280;36133;42.522;27.456;2022-07-29T00:19:20;101330.78;;;26.06;59.51
50250;BME280;36133;42.522;27.456;2022-07-29T00:21:45;101049.69;;;24.37;58.68
50250;BME280;36133;42.522;27.456;2022-07-29T00:24:11;101067.69;;;24.65;58.86
50250;BME280;36133;42.522;27.456;2022-07-29T00:26:37;101079.28;;;24.67;58.59
50250;BME280;36133;42.522;27.456;2022-07-29T00:29:03;101169.75;;;25.27;58.85
50250;BME280;36133;42.522;27.456;2022-07-29T00:31:29;101165.88;;;25.28;58.71
50250;BME280;36133;42.522;27.456;2022-07-29T00:33:55;101335.22;;;26.17;58.74
50250;BME280;36133;42.522;27.456;2022-07-29T00:36:21;101279.88;;;25.81;59.01
50250;BME280;36133;42.522;27.456;2022-07-29T00:38:48;101332.69;;;26.10;59.28
50250;BME280;36133;42.522;27.456;2022-07-29T00:41:14;101332.41;;;26.02;59.57
50250;BME280;36133;42.522;27.456;2022-07-29T00:43:40;101214.31;;;24.78;60.81
50250;BME280;36133;42.522;27.456;2022-07-29T00:46:06;101003.56;;;23.64;60.59
50250;BME280;36133;42.522;27.456;2022-07-29T00:48:32;101088.59;;;23.93;60.80
50250;BME280;36133;42.522;27.456;2022-07-29T00:50:58;101152.38;;;24.49;61.47
50250;BME280;36133;42.522;27.456;2022-07-29T00:53:24;101091.06;;;24.37;60.19
50250;BME280;36133;42.522;27.456;2022-07-29T00:55:50;101308.34;;;25.82;59.85
50250;BME280;36133;42.522;27.456;2022-07-29T00:58:16;101297.28;;;25.82;59.41
50250;BME280;36133;42.522;27.456;2022-07-29T01:00:41;101309.94;;;25.67;60.12
50250;BME280;36133;42.522;27.456;2022-07-29T01:03:08;101077.88;;;23.96;60.43
50250;BME280;36133;42.522;27.456;2022-07-29T01:05:34;101270.69;;;24.88;61.79
50250;BME280;36133;42.522;27.456;2022-07-29T01:08:00;101090.19;;;23.79;61.39
50250;BME280;36133;42.522;27.456;2022-07-29T01:10:27;100898.13;;;22.90;60.96
50250;BME280;36133;42.522;27.456;2022-07-29T01:12:56;101056.22;;;23.68;61.19
50250;BME280;36133;42.522;27.456;2022-07-29T01:15:22;100944.69;;;22.96;61.54
50250;BME280;36133;42.522;27.456;2022-07-29T01:20:44;101303.03;;;24.45;64.05
50250;BME280;36133;42.522;27.456;2022-07-29T01:32:37;101170.38;;;24.67;60.72
50250;BME280;36133;42.522;27.456;2022-07-29T01:34:50;101097.16;;;23.91;61.25
50250;BME280;36133;42.522;27.456;2022-07-29T01:37:24;101202.88;;;24.49;61.29
50250;BME280;36133;42.522;27.456;2022-07-29T01:39:54;101141.25;;;24.34;61.14
50250;BME280;36133;42.522;27.456;2022-07-29T01:42:35;101175.06;;;24.66;60.60
50250;BME280;36133;42.522;27.456;2022-07-29T01:47:43;101255.47;;;24.75;62.11
50250;BME280;36133;42.522;27.456;2022-07-29T01:50:12;101189.16;;;24.70;60.99
50250;BME280;36133;42.522;27.456;2022-07-29T01:52:46;101257.28;;;25.17;60.66
50250;BME280;36133;42.522;27.456;2022-07-29T01:55:16;101220.66;;;24.74;61.11
50250;BME280;36133;42.522;27.456;2022-07-29T01:57:46;101142.94;;;24.40;60.68
50250;BME280;36133;42.522;27.456;2022-07-29T02:00:13;101306.19;;;25.11;61.16
50250;BME280;36133;42.522;27.456;2022-07-29T02:02:41;101276.66;;;24.69;61.22
50250;BME280;36133;42.522;27.456;2022-07-29T02:05:10;101286.94;;;24.74;62.13
50250;BME280;36133;42.522;27.456;2022-07-29T02:07:38;101208.91;;;24.04;62.54
50250;BME280;36133;42.522;27.456;2022-07-29T02:10:07;101272.16;;;24.48;62.78
50250;BME280;36133;42.522;27.456;2022-07-29T02:12:33;101243.41;;;24.07;63.69
50250;BME280;36133;42.522;27.456;2022-07-29T02:15:02;101234.66;;;24.15;62.79
50250;BME280;36133;42.522;27.456;2022-07-29T02:17:45;101284.38;;;24.62;62.46
50250;BME280;36133;42.522;27.456;2022-07-29T02:20:15;101201.00;;;24.13;61.97
50250;BME280;36133;42.522;27.456;2022-07-29T02:22:43;101229.03;;;24.37;61.81
50250;BME280;36133;42.522;27.456;2022-07-29T02:25:10;101174.03;;;24.25;61.54
50250;BME280;36133;42.522;27.456;2022-07-29T02:27:37;101267.50;;;24.59;61.59
50250;BME280;36133;42.522;27.456;2022-07-29T02:30:05;101073.09;;;23.13;61.94
50250;BME280;36133;42.522;27.456;2022-07-29T02:32:34;101141.44;;;23.75;61.86
50250;BME280;36133;42.522;27.456;2022-07-29T02:35:01;101075.28;;;23.05;62.18
50250;BME280;36133;42.522;27.456;2022-07-29T02:37:28;101268.66;;;23.61;64.52
50250;BME280;36133;42.522;27.456;2022-07-29T02:39:55;101284.47;;;24.03;63.82
50250;BME280;36133;42.522;27.456;2022-07-29T02:42:23;101103.06;;;23.04;63.30
50250;BME280;36133;42.522;27.456;2022-07-29T02:44:49;101220.22;;;24.03;62.17
50250;BME280;36133;42.522;27.456;2022-07-29T02:47:31;101091.47;;;23.34;61.56
50250;BME280;36133;42.522;27.456;2022-07-29T02:50:15;101234.91;;;24.13;61.53
50250;BME280;36133;42.522;27.456;2022-07-29T02:53:16;101290.06;;;24.45;61.79
50250;BME280;36133;42.522;27.456;2022-07-29T02:55:40;101181.13;;;23.15;63.50
50250;BME280;36133;42.522;27.456;2022-07-29T03:00:41;101044.19;;;22.29;63.93
50250;BME280;36133;42.522;27.456;2022-07-29T03:03:13;101284.56;;;23.81;64.18
50250;BME280;36133;42.522;27.456;2022-07-29T03:05:40;101105.75;;;22.50;64.28
50250;BME280;36133;42.522;27.456;2022-07-29T03:08:08;101127.06;;;23.08;62.23
50250;BME280;36133;42.522;27.456;2022-07-29T03:10:34;101128.47;;;23.11;62.32
50250;BME280;36133;42.522;27.456;2022-07-29T03:13:02;101177.53;;;23.14;63.25
50250;BME280;36133;42.522;27.456;2022-07-29T03:15:29;101294.78;;;24.13;61.80
50250;BME280;36133;42.522;27.456;2022-07-29T03:17:54;101128.50;;;22.89;62.11
50250;BME280;36133;42.522;27.456;2022-07-29T03:20:20;101119.69;;;22.65;62.53
50250;BME280;36133;42.522;27.456;2022-07-29T03:22:46;101282.47;;;23.39;63.11
50250;BME280;36133;42.522;27.456;2022-07-29T03:25:16;101336.91;;;23.54;63.59
50250;BME280;36133;42.522;27.456;2022-07-29T03:27:42;101190.34;;;23.30;61.79
50250;BME280;36133;42.522;27.456;2022-07-29T03:30:09;101318.84;;;23.90;62.41
50250;BME280;36133;42.522;27.456;2022-07-29T03:32:35;101255.41;;;23.36;62.67
50250;BME280;36133;42.522;27.456;2022-07-29T03:35:01;101224.22;;;23.04;63.01
50250;BME280;36133;42.522;27.456;2022-07-29T03:37:27;101048.94;;;21.95;63.34
50250;BME280;36133;42.522;27.456;2022-07-29T03:39:55;101281.03;;;23.37;63.54
50250;BME280;36133;42.522;27.456;2022-07-29T03:42:24;101095.66;;;22.56;62.86
50250;BME280;36133;42.522;27.456;2022-07-29T03:44:51;101196.28;;;23.17;63.30
50250;BME280;36133;42.522;27.456;2022-07-29T03:47:22;101172.28;;;23.45;62.41
50250;BME280;36133;42.522;27.456;2022-07-29T03:49:50;101281.94;;;23.96;63.16
50250;BME280;36133;42.522;27.456;2022-07-29T03:52:17;101215.44;;;23.34;63.48
50250;BME280;36133;42.522;27.456;2022-07-29T03:54:43;101151.69;;;23.20;63.24
50250;BME280;36133;42.522;27.456;2022-07-29T03:57:14;101197.34;;;23.43;63.86
50250;BME280;36133;42.522;27.456;2022-07-29T03:59:41;101217.06;;;23.57;63.95
50250;BME280;36133;42.522;27.456;2022-07-29T04:02:09;101281.63;;;24.25;63.29
50250;BME280;36133;42.522;27.456;2022-07-29T04:04:36;101313.97;;;24.72;62.14
50250;BME280;36133;42.522;27.456;2022-07-29T04:07:02;101237.19;;;24.64;60.72
50250;BME280;36133;42.522;27.456;2022-07-29T04:09:28;101312.28;;;25.13;60.68
50250;BME280;36133;42.522;27.456;2022-07-29T04:11:53;101117.63;;;24.58;58.80
50250;BME280;36133;42.522;27.456;2022-07-29T04:14:19;101106.72;;;25.04;57.02
50250;BME280;36133;42.522;27.456;2022-07-29T04:16:45;101130.50;;;25.20;57.03
50250;BME280;36133;42.522;27.456;2022-07-29T04:19:11;101095.63;;;24.99;56.98
50250;BME280;36133;42.522;27.456;2022-07-29T04:21:40;101331.28;;;26.64;56.97
50250;BME280;36133;42.522;27.456;2022-07-29T04:24:07;101333.69;;;27.11;55.23
50250;BME280;36133;42.522;27.456;2022-07-29T04:26:34;101328.44;;;27.64;53.96
50250;BME280;36133;42.522;27.456;2022-07-29T04:28:59;101177.72;;;27.05;53.48
50250;BME280;36133;42.522;27.456;2022-07-29T04:31:25;101285.34;;;27.82;53.09
50250;BME280;36133;42.522;27.456;2022-07-29T04:33:50;101155.16;;;27.22;53.13
50250;BME280;36133;42.522;27.456;2022-07-29T04:36:16;101310.13;;;28.41;52.40
50250;BME280;36133;42.522;27.456;2022-07-29T04:38:41;101128.63;;;27.45;52.48
50250;BME280;36133;42.522;27.456;2022-07-29T04:41:07;101143.97;;;28.00;51.59
50250;BME280;36133;42.522;27.456;2022-07-29T04:43:37;101285.19;;;28.36;52.62
50250;BME280;36133;42.522;27.456;2022-07-29T04:46:03;101167.91;;;27.57;53.25
50250;BME280;36133;42.522;27.456;2022-07-29T04:48:29;101236.75;;;28.47;52.46
50250;BME280;36133;42.522;27.456;2022-07-29T04:50:55;101219.44;;;28.26;52.72
50250;BME280;36133;42.522;27.456;2022-07-29T04:53:20;101246.31;;;29.08;51.62
50250;BME280;36133;42.522;27.456;2022-07-29T04:55:46;101234.22;;;29.36;50.67
50250;BME280;36133;42.522;27.456;2022-07-29T04:58:12;101232.47;;;29.40;49.52
50250;BME280;36133;42.522;27.456;2022-07-29T05:00:37;101224.91;;;29.97;48.98
50250;BME280;36133;42.522;27.456;2022-07-29T05:03:03;101336.22;;;30.68;48.62
50250;BME280;36133;42.522;27.456;2022-07-29T05:05:29;101144.50;;;29.96;47.94
50250;BME280;36133;42.522;27.456;2022-07-29T05:07:54;101139.56;;;29.09;49.58
50250;BME280;36133;42.522;27.456;2022-07-29T05:10:20;101307.56;;;30.16;49.03
50250;BME280;36133;42.522;27.456;2022-07-29T05:12:45;101115.88;;;27.78;51.86
50250;BME280;36133;42.522;27.456;2022-07-29T05:15:11;101353.97;;;30.53;49.21
50250;BME280;36133;42.522;27.456;2022-07-29T05:17:36;101175.22;;;29.39;49.73
50250;BME280;36133;42.522;27.456;2022-07-29T05:20:03;101351.16;;;30.39;49.64
50250;BME280;36133;42.522;27.456;2022-07-29T05:22:28;101302.78;;;30.35;49.46
50250;BME280;36133;42.522;27.456;2022-07-29T05:24:54;101225.28;;;29.21;51.18
50250;BME280;36133;42.522;27.456;2022-07-29T05:27:19;101153.03;;;29.86;48.49
50250;BME280;36133;42.522;27.456;2022-07-29T05:29:45;101294.09;;;30.23;49.63
50250;BME280;36133;42.522;27.456;2022-07-29T05:32:11;101336.03;;;30.45;50.05
50250;BME280;36133;42.522;27.456;2022-07-29T05:34:36;101344.66;;;30.76;49.25
50250;BME280;36133;42.522;27.456;2022-07-29T05:37:02;101257.88;;;30.23;48.27
50250;BME280;36133;42.522;27.456;2022-07-29T05:39:28;101245.25;;;29.04;51.63
50250;BME280;36133;42.522;27.456;2022-07-29T05:41:53;101251.16;;;30.84;47.66
50250;BME280;36133;42.522;27.456;2022-07-29T05:44:19;101351.91;;;31.46;47.12
50250;BME280;36133;42.522;27.456;2022-07-29T05:46:44;101293.16;;;31.78;45.79
50250;BME280;36133;42.522;27.456;2022-07-29T05:49:09;101201.38;;;29.90;48.28
50250;BME280;36133;42.522;27.456;2022-07-29T05:51:35;101291.00;;;30.71;48.09
50250;BME280;36133;42.522;27.456;2022-07-29T05:54:01;101345.41;;;30.82;47.55
50250;BME280;36133;42.522;27.456;2022-07-29T05:56:27;101148.00;;;30.01;46.91
50250;BME280;36133;42.522;27.456;2022-07-29T05:58:53;101142.88;;;30.50;45.83
50250;BME280;36133;42.522;27.456;2022-07-29T06:01:18;101169.81;;;31.32;44.57
50250;BME280;36133;42.522;27.456;2022-07-29T06:03:44;101219.22;;;30.62;46.27
50250;BME280;36133;42.522;27.456;2022-07-29T06:06:10;101238.06;;;30.71;46.27
50250;BME280;36133;42.522;27.456;2022-07-29T06:08:35;101326.91;;;31.91;45.06
50250;BME280;36133;42.522;27.456;2022-07-29T06:11:02;101326.72;;;31.87;45.58
50250;BME280;36133;42.522;27.456;2022-07-29T06:13:28;101368.22;;;32.25;44.41
50250;BME280;36133;42.522;27.456;2022-07-29T06:15:56;101235.78;;;31.50;44.25
50250;BME280;36133;42.522;27.456;2022-07-29T06:18:24;101233.22;;;32.07;42.66
50250;BME280;36133;42.522;27.456;2022-07-29T06:21:07;100898.06;;;30.26;42.80
50250;BME280;36133;42.522;27.456;2022-07-29T06:23:37;101103.09;;;31.44;43.81
50250;BME280;36133;42.522;27.456;2022-07-29T06:26:03;101217.88;;;31.96;44.77
50250;BME280;36133;42.522;27.456;2022-07-29T06:28:34;100997.91;;;30.69;43.00
50250;BME280;36133;42.522;27.456;2022-07-29T06:31:00;101377.44;;;32.25;45.38
50250;BME280;36133;42.522;27.456;2022-07-29T06:33:25;101220.38;;;32.28;43.51
50250;BME280;36133;42.522;27.456;2022-07-29T06:35:51;101291.50;;;33.59;42.14
50250;BME280;36133;42.522;27.456;2022-07-29T06:38:16;101355.59;;;33.95;42.22
50250;BME280;36133;42.522;27.456;2022-07-29T06:40:43;101322.41;;;32.57;44.69
50250;BME280;36133;42.522;27.456;2022-07-29T06:43:40;101352.22;;;32.61;45.49
50250;BME280;36133;42.522;27.456;2022-07-29T06:46:14;101365.28;;;31.71;47.49
50250;BME280;36133;42.522;27.456;2022-07-29T06:48:41;101291.00;;;31.75;46.21
50250;BME280;36133;42.522;27.456;2022-07-29T06:51:10;101326.03;;;31.68;47.02
50250;BME280;36133;42.522;27.456;2022-07-29T06:53:40;101311.22;;;31.81;46.89
50250;BME280;36133;42.522;27.456;2022-07-29T06:56:07;101136.69;;;30.80;46.65
50250;BME280;36133;42.522;27.456;2022-07-29T06:58:38;101155.88;;;30.41;47.73
50250;BME280;36133;42.522;27.456;2022-07-29T07:01:04;101299.75;;;31.33;47.51
50250;BME280;36133;42.522;27.456;2022-07-29T07:03:31;101204.91;;;30.83;47.82
50250;BME280;36133;42.522;27.456;2022-07-29T07:05:56;101368.31;;;31.61;47.13
50250;BME280;36133;42.522;27.456;2022-07-29T07:08:23;100978.44;;;29.77;46.09
50250;BME280;36133;42.522;27.456;2022-07-29T07:10:49;101368.81;;;32.13;46.10
50250;BME280;36133;42.522;27.456;2022-07-29T07:13:15;101270.81;;;32.01;45.10
50250;BME280;36133;42.522;27.456;2022-07-29T07:15:43;101194.16;;;31.85;45.00
50250;BME280;36133;42.522;27.456;2022-07-29T07:18:08;101356.06;;;33.71;42.97
50250;BME280;36133;42.522;27.456;2022-07-29T07:20:35;101363.19;;;32.58;44.88
50250;BME280;36133;42.522;27.456;2022-07-29T07:23:00;101251.59;;;32.61;42.12
50250;BME280;36133;42.522;27.456;2022-07-29T07:25:26;101283.06;;;32.45;42.57
50250;BME280;36133;42.522;27.456;2022-07-29T07:27:52;101265.94;;;32.77;41.90
50250;BME280;36133;42.522;27.456;2022-07-29T07:30:17;101196.34;;;32.58;41.65
50250;BME280;36133;42.522;27.456;2022-07-29T07:32:43;101369.53;;;33.51;41.63
50250;BME280;36133;42.522;27.456;2022-07-29T07:35:09;101206.00;;;32.83;40.97
50250;BME280;36133;42.522;27.456;2022-07-29T07:37:38;101369.56;;;33.69;41.57
50250;BME280;36133;42.522;27.456;2022-07-29T07:40:06;101202.44;;;32.69;41.88
50250;BME280;36133;42.522;27.456;2022-07-29T07:42:32;101045.72;;;31.83;41.58
50250;BME280;36133;42.522;27.456;2022-07-29T07:44:58;101123.44;;;33.20;40.60
50250;BME280;36133;42.522;27.456;2022-07-29T07:47:24;100969.50;;;31.11;41.93
50250;BME280;36133;42.522;27.456;2022-07-29T07:49:50;101087.22;;;30.86;44.65
50250;BME280;36133;42.522;27.456;2022-07-29T07:52:17;101322.75;;;33.43;42.45
50250;BME280;36133;42.522;27.456;2022-07-29T07:54:43;101065.41;;;31.77;42.86
50250;BME280;36133;42.522;27.456;2022-07-29T07:57:12;101197.53;;;32.75;41.56
50250;BME280;36133;42.522;27.456;2022-07-29T07:59:39;101226.91;;;34.07;40.42
50250;BME280;36133;42.522;27.456;2022-07-29T08:02:07;101133.47;;;32.96;40.99
50250;BME280;36133;42.522;27.456;2022-07-29T08:04:33;101173.16;;;32.58;42.14
50250;BME280;36133;42.522;27.456;2022-07-29T08:06:59;101257.81;;;32.58;43.53
50250;BME280;36133;42.522;27.456;2022-07-29T08:09:27;101264.81;;;33.53;41.89
50250;BME280;36133;42.522;27.456;2022-07-29T08:11:53;101197.16;;;33.25;42.12
50250;BME280;36133;42.522;27.456;2022-07-29T08:14:19;101366.16;;;33.98;42.24
50250;BME280;36133;42.522;27.456;2022-07-29T08:16:45;101143.66;;;33.61;40.54
50250;BME280;36133;42.522;27.456;2022-07-29T08:19:11;101210.25;;;34.57;39.40
50250;BME280;36133;42.522;27.456;2022-07-29T08:21:37;101073.41;;;33.45;40.03
50250;BME280;36133;42.522;27.456;2022-07-29T08:24:03;101232.47;;;34.16;39.61
50250;BME280;36133;42.522;27.456;2022-07-29T08:26:52;100996.13;;;32.62;40.05
50250;BME280;36133;42.522;27.456;2022-07-29T08:29:18;101189.22;;;33.78;40.04
50250;BME280;36133;42.522;27.456;2022-07-29T08:31:43;101345.19;;;34.13;40.27
50250;BME280;36133;42.522;27.456;2022-07-29T08:34:09;101287.22;;;34.04;41.41
50250;BME280;36133;42.522;27.456;2022-07-29T08:36:41;101356.72;;;34.37;42.50
50250;BME280;36133;42.522;27.456;2022-07-29T08:39:06;101217.19;;;34.51;40.98
50250;BME280;36133;42.522;27.456;2022-07-29T08:41:32;101292.16;;;36.14;37.97
50250;BME280;36133;42.522;27.456;2022-07-29T08:44:00;101032.63;;;34.12;38.43
50250;BME280;36133;42.522;27.456;2022-07-29T08:46:37;101229.03;;;34.95;38.44
50250;BME280;36133;42.522;27.456;2022-07-29T08:49:04;101205.56;;;33.50;41.30
50250;BME280;36133;42.522;27.456;2022-07-29T08:51:30;101099.22;;;33.33;39.57
50250;BME280;36133;42.522;27.456;2022-07-29T08:53:59;101046.28;;;32.59;40.35
50250;BME280;36133;42.522;27.456;2022-07-29T08:56:25;101245.50;;;33.16;40.85
50250;BME280;36133;42.522;27.456;2022-07-29T08:58:51;101200.28;;;33.23;39.91
50250;BME280;36133;42.522;27.456;2022-07-29T09:01:21;101166.19;;;32.95;39.86
50250;BME280;36133;42.522;27.456;2022-07-29T09:03:55;101205.91;;;34.69;36.53
50250;BME280;36133;42.522;27.456;2022-07-29T09:06:28;101227.72;;;35.13;36.08
50250;BME280;36133;42.522;27.456;2022-07-29T09:08:58;101223.88;;;35.47;35.30
50250;BME280;36133;42.522;27.456;2022-07-29T09:11:27;101347.22;;;36.48;33.72
50250;BME280;36133;42.522;27.456;2022-07-29T09:13:53;101355.91;;;36.01;34.42
50250;BME280;36133;42.522;27.456;2022-07-29T09:16:20;101366.03;;;35.52;35.48
50250;BME280;36133;42.522;27.456;2022-07-29T09:18:46;100971.22;;;32.09;36.88
50250;BME280;36133;42.522;27.456;2022-07-29T09:21:14;101203.31;;;34.17;35.18
50250;BME280;36133;42.522;27.456;2022-07-29T09:27:24;101334.47;;;35.97;33.48
50250;BME280;36133;42.522;27.456;2022-07-29T09:29:59;101133.72;;;35.94;31.86
50250;BME280;36133;42.522;27.456;2022-07-29T09:32:25;101096.16;;;35.53;31.99
50250;BME280;36133;42.522;27.456;2022-07-29T09:35:21;101353.75;;;37.34;31.64
50250;BME280;36133;42.522;27.456;2022-07-29T09:37:51;101155.63;;;36.01;31.24
50250;BME280;36133;42.522;27.456;2022-07-29T09:40:20;101123.84;;;35.43;31.69
50250;BME280;36133;42.522;27.456;2022-07-29T09:42:46;101346.25;;;36.11;32.79
50250;BME280;36133;42.522;27.456;2022-07-29T09:45:13;101197.34;;;35.57;32.47
50250;BME280;36133;42.522;27.456;2022-07-29T09:47:51;101316.88;;;36.21;32.96
50250;BME280;36133;42.522;27.456;2022-07-29T09:50:22;101326.00;;;36.51;32.27
50250;BME280;36133;42.522;27.456;2022-07-29T09:52:52;101379.81;;;36.07;33.78
50250;BME280;36133;42.522;27.456;2022-07-29T09:55:19;101356.34;;;35.41;34.98
50250;BME280;36133;42.522;27.456;2022-07-29T09:57:46;101085.53;;;34.63;33.27
50250;BME280;36133;42.522;27.456;2022-07-29T10:00:18;101280.88;;;35.18;34.79
50250;BME280;36133;42.522;27.456;2022-07-29T10:02:46;101345.25;;;36.73;32.84
50250;BME280;36133;42.522;27.456;2022-07-29T10:05:20;101204.63;;;35.16;32.67
50250;BME280;36133;42.522;27.456;2022-07-29T10:07:54;101182.69;;;33.48;35.14
50250;BME280;36133;42.522;27.456;2022-07-29T10:10:27;101334.31;;;35.72;33.36
50250;BME280;36133;42.522;27.456;2022-07-29T10:12:58;101194.59;;;34.56;33.08
50250;BME280;36133;42.522;27.456;2022-07-29T10:15:26;100980.38;;;33.31;33.00
50250;BME280;36133;42.522;27.456;2022-07-29T10:17:53;101052.59;;;33.55;34.15
50250;BME280;36133;42.522;27.456;2022-07-29T10:20:30;101030.94;;;34.19;32.48
50250;BME280;36133;42.522;27.456;2022-07-29T10:22:59;101059.94;;;34.15;32.52
50250;BME280;36133;42.522;27.456;2022-07-29T10:25:26;100957.66;;;33.49;31.99
50250;BME280;36133;42.522;27.456;2022-07-29T10:27:53;101200.84;;;35.12;31.97
50250;BME280;36133;42.522;27.456;2022-07-29T10:30:20;101067.75;;;35.01;31.11
50250;BME280;36133;42.522;27.456;2022-07-29T10:33:15;101338.13;;;38.29;29.50
50250;BME280;36133;42.522;27.456;2022-07-29T10:44:22;101157.28;;;36.26;30.71
50250;BME280;36133;42.522;27.456;2022-07-29T10:46:52;101254.56;;;37.53;29.72
50250;BME280;36133;42.522;27.456;2022-07-29T10:49:27;100907.00;;;34.43;30.82
50250;BME280;36133;42.522;27.456;2022-07-29T10:51:58;101257.78;;;35.96;31.65
50250;BME280;36133;42.522;27.456;2022-07-29T10:59:49;101316.69;;;37.85;29.00
50250;BME280;36133;42.522;27.456;2022-07-29T11:07:36;101289.34;;;37.45;28.08
50250;BME280;36133;42.522;27.456;2022-07-29T11:10:22;101222.44;;;36.65;28.98
50250;BME280;36133;42.522;27.456;2022-07-29T11:12:48;100823.31;;;34.54;29.00
50250;BME280;36133;42.522;27.456;2022-07-29T11:15:19;101029.88;;;36.10;28.33
50250;BME280;36133;42.522;27.456;2022-07-29T11:20:40;101304.34;;;37.24;28.57
50250;BME280;36133;42.522;27.456;2022-07-29T11:23:32;101071.38;;;35.56;28.50
50250;BME280;36133;42.522;27.456;2022-07-29T11:31:42;100937.78;;;35.91;27.52
50250;BME280;36133;42.522;27.456;2022-07-29T11:34:25;101308.22;;;37.44;29.23
50250;BME280;36133;42.522;27.456;2022-07-29T11:45:01;101299.31;;;38.54;28.23
50250;BME280;36133;42.522;27.456;2022-07-29T11:47:29;101297.97;;;38.80;28.43
50250;BME280;36133;42.522;27.456;2022-07-29T11:49:56;101296.06;;;37.80;29.70
50250;BME280;36133;42.522;27.456;2022-07-29T11:52:39;101257.88;;;38.27;28.87
50250;BME280;36133;42.522;27.456;2022-07-29T11:55:31;101284.81;;;37.68;30.44
50250;BME280;36133;42.522;27.456;2022-07-29T11:58:01;101290.25;;;39.12;28.18
50250;BME280;36133;42.522;27.456;2022-07-29T12:00:40;101247.69;;;37.38;29.94
50250;BME280;36133;42.522;27.456;2022-07-29T12:03:26;101217.81;;;39.54;27.27
50250;BME280;36133;42.522;27.456;2022-07-29T12:05:54;101143.38;;;39.08;27.10
50250;BME280;36133;42.522;27.456;2022-07-29T12:08:22;101209.16;;;39.47;27.55
50250;BME280;36133;42.522;27.456;2022-07-29T12:10:51;101218.69;;;38.69;28.83
50250;BME280;36133;42.522;27.456;2022-07-29T12:13:19;101282.25;;;37.91;30.56
50250;BME280;36133;42.522;27.456;2022-07-29T12:15:55;101078.28;;;36.68;30.97
50250;BME280;36133;42.522;27.456;2022-07-29T12:18:25;101098.91;;;38.00;29.72
50250;BME280;36133;42.522;27.456;2022-07-29T12:21:02;101198.47;;;38.83;29.51
50250;BME280;36133;42.522;27.456;2022-07-29T12:23:29;100997.50;;;37.68;28.88
50250;BME280;36133;42.522;27.456;2022-07-29T12:25:55;100915.41;;;35.82;30.30
50250;BME280;36133;42.522;27.456;2022-07-29T12:28:23;100890.16;;;37.38;29.12
50250;BME280;36133;42.522;27.456;2022-07-29T12:30:49;100915.56;;;37.42;28.86
50250;BME280;36133;42.522;27.456;2022-07-29T12:33:21;100898.94;;;35.93;30.16
50250;BME280;36133;42.522;27.456;2022-07-29T12:35:54;100906.41;;;36.01;30.53
50250;BME280;36133;42.522;27.456;2022-07-29T12:38:20;101082.66;;;36.53;31.53
50250;BME280;36133;42.522;27.456;2022-07-29T12:40:46;101093.13;;;36.81;31.72
50250;BME280;36133;42.522;27.456;2022-07-29T12:45:45;101076.63;;;37.47;29.58
50250;BME280;36133;42.522;27.456;2022-07-29T12:48:11;101204.94;;;39.18;29.18
50250;BME280;36133;42.522;27.456;2022-07-29T12:50:54;100794.88;;;36.46;29.82
50250;BME280;36133;42.522;27.456;2022-07-29T12:53:20;100764.81;;;37.09;28.76
50250;BME280;36133;42.522;27.456;2022-07-29T12:55:48;100841.00;;;37.87;28.18
50250;BME280;36133;42.522;27.456;2022-07-29T12:58:43;101227.59;;;39.41;29.22
50250;BME280;36133;42.522;27.456;2022-07-29T13:01:10;101229.97;;;39.20;29.43
50250;BME280;36133;42.522;27.456;2022-07-29T13:03:50;100936.09;;;37.58;29.11
50250;BME280;36133;42.522;27.456;2022-07-29T13:06:39;101226.31;;;38.84;30.97
50250;BME280;36133;42.522;27.456;2022-07-29T13:14:30;100906.66;;;36.92;31.53
50250;BME280;36133;42.522;27.456;2022-07-29T13:17:06;100828.47;;;36.70;31.53
50250;BME280;36133;42.522;27.456;2022-07-29T13:19:43;100817.16;;;37.14;30.99
50250;BME280;36133;42.522;27.456;2022-07-29T13:22:11;101091.53;;;38.27;31.55
50250;BME280;36133;42.522;27.456;2022-07-29T13:24:58;101006.59;;;37.18;33.13
50250;BME280;36133;42.522;27.456;2022-07-29T13:27:26;100883.28;;;37.71;31.22
50250;BME280;36133;42.522;27.456;2022-07-29T13:29:52;101035.13;;;37.60;32.32
50250;BME280;36133;42.522;27.456;2022-07-29T13:32:21;101078.19;;;38.08;32.93
50250;BME280;36133;42.522;27.456;2022-07-29T13:34:47;101086.47;;;38.87;32.58
50250;BME280;36133;42.522;27.456;2022-07-29T13:37:21;101067.16;;;38.89;32.51
50250;BME280;36133;42.522;27.456;2022-07-29T13:39:47;100948.22;;;36.99;33.69
50250;BME280;36133;42.522;27.456;2022-07-29T13:42:15;100863.97;;;35.17;35.24
50250;BME280;36133;42.522;27.456;2022-07-29T13:44:41;100863.72;;;35.22;36.71
50250;BME280;36133;42.522;27.456;2022-07-29T13:47:07;101010.84;;;37.55;34.08
50250;BME280;36133;42.522;27.456;2022-07-29T13:49:33;101223.84;;;36.95;36.08
50250;BME280;36133;42.522;27.456;2022-07-29T13:51:59;100831.47;;;34.26;37.51
50250;BME280;36133;42.522;27.456;2022-07-29T13:54:25;100748.91;;;34.11;37.08